Time;durP1;ratioP1;P1;durP2;ratioP2;P2;SDS_P1;SDS_P2;PMS_P1;PMS_P2;Temp;Humidity;BMP_temperature;BMP_pressure;BME280_temperature;BME280_humidity;BME280_pressure;Samples;Min_cycle;Max_cycle;Signal;HPM_P1;HPM_P2
2021/08/27 00:00:59;;;;;;;1.00;0.90;;;;;;;;;;4915919;29;20528;-75
2021/08/27 00:03:25;;;;;;;2.58;0.80;;;;;;;;;;4915839;28;20426;-75
2021/08/27 00:05:51;;;;;;;0.90;0.60;;;;;;;;;;4914188;29;20626;-76
2021/08/27 00:08:17;;;;;;;1.10;1.00;;;;;;;;;;4915282;29;20508;-76
2021/08/27 00:10:43;;;;;;;1.05;0.90;;;;;;;;;;4914826;28;20210;-75
2021/08/27 00:13:10;;;;;;;1.00;0.90;;;;;;;;;;4915559;28;20267;-76
2021/08/27 00:15:36;;;;;;;0.90;0.60;;;;;;;;;;4915916;28;20206;-77
2021/08/27 00:18:02;;;;;;;0.90;0.60;;;;;;;;;;4915496;29;20183;-76
2021/08/27 00:20:28;;;;;;;0.90;0.70;;;;;;;;;;4915588;28;20209;-76
2021/08/27 00:22:54;;;;;;;0.90;0.60;;;;;;;;;;4915724;28;20213;-76
2021/08/27 00:25:20;;;;;;;0.90;0.60;;;;;;;;;;4914862;29;20187;-76
2021/08/27 00:27:46;;;;;;;0.90;0.70;;;;;;;;;;4925170;28;20186;-76
2021/08/27 00:30:12;;;;;;;1.00;0.70;;;;;;;;;;4915822;29;20470;-77
2021/08/27 00:32:38;;;;;;;0.90;0.70;;;;;;;;;;4915468;29;20524;-76
2021/08/27 00:35:05;;;;;;;1.00;0.90;;;;;;;;;;4915650;29;20265;-75
2021/08/27 00:37:34;;;;;;;1.00;0.80;;;;;;;;;;4915057;29;20489;-75
2021/08/27 00:42:31;;;;;;;0.95;0.85;;;;;;;;;;4962499;28;20212;-72
2021/08/27 00:44:57;;;;;;;0.90;0.70;;;;;;;;;;4953129;28;20177;-71
2021/08/27 00:47:23;;;;;;;1.00;0.70;;;;;;;;;;4951879;28;20193;-72
2021/08/27 00:49:49;;;;;;;0.90;0.60;;;;;;;;;;4951988;28;20205;-72
2021/08/27 00:52:15;;;;;;;0.90;0.60;;;;;;;;;;4934842;28;20478;-72
2021/08/27 00:54:45;;;;;;;0.90;0.60;;;;;;;;;;4934159;28;20182;-72
2021/08/27 00:57:11;;;;;;;1.52;0.88;;;;;;;;;;4932533;28;20257;-72
2021/08/27 00:59:37;;;;;;;0.90;0.70;;;;;;;;;;4933221;28;20619;-72
2021/08/27 01:02:03;;;;;;;0.90;0.60;;;;;;;;;;4933233;28;20488;-72
2021/08/27 01:04:30;;;;;;;2.17;1.65;;;;;;;;;;4933960;28;20213;-72
2021/08/27 01:06:58;;;;;;;0.90;0.60;;;;;;;;;;4933436;28;20185;-72
2021/08/27 01:09:24;;;;;;;0.90;0.70;;;;;;;;;;4933980;28;20255;-72
2021/08/27 01:11:54;;;;;;;0.90;0.60;;;;;;;;;;4941563;28;20209;-72
2021/08/27 01:14:31;;;;;;;0.90;0.60;;;;;;;;;;4938054;28;20434;-72
2021/08/27 01:16:59;;;;;;;0.90;0.60;;;;;;;;;;4934943;28;20542;-72
2021/08/27 01:19:38;;;;;;;1.00;0.80;;;;;;;;;;4944720;28;20548;-72
2021/08/27 01:22:22;;;;;;;0.90;0.60;;;;;;;;;;4953024;28;20292;-72
2021/08/27 01:24:49;;;;;;;0.90;0.70;;;;;;;;;;4942377;28;20177;-72
2021/08/27 01:27:18;;;;;;;1.90;1.00;;;;;;;;;;4933552;28;20181;-72
2021/08/27 01:30:03;;;;;;;0.90;0.60;;;;;;;;;;4933263;28;20212;-72
2021/08/27 01:32:34;;;;;;;1.00;0.88;;;;;;;;;;4933372;28;20182;-72
2021/08/27 01:35:01;;;;;;;0.90;0.60;;;;;;;;;;4937043;28;20213;-72
2021/08/27 01:37:28;;;;;;;0.95;0.80;;;;;;;;;;4944291;28;20173;-72
2021/08/27 01:39:55;;;;;;;0.93;0.75;;;;;;;;;;4952616;28;20173;-72
2021/08/27 01:42:23;;;;;;;0.90;0.60;;;;;;;;;;4937738;28;20223;-72
2021/08/27 01:44:50;;;;;;;0.90;0.60;;;;;;;;;;4933173;28;20186;-71
2021/08/27 01:47:17;;;;;;;0.90;0.60;;;;;;;;;;4932853;29;20224;-72
2021/08/27 01:49:45;;;;;;;1.65;1.55;;;;;;;;;;4933261;28;20213;-72
2021/08/27 01:52:11;;;;;;;0.90;0.60;;;;;;;;;;4933206;28;20262;-72
2021/08/27 01:54:38;;;;;;;0.90;0.63;;;;;;;;;;4932929;28;20679;-72
2021/08/27 01:57:04;;;;;;;0.90;0.70;;;;;;;;;;4933088;28;20268;-72
2021/08/27 01:59:33;;;;;;;17.50;1.35;;;;;;;;;;4933192;28;20217;-72
2021/08/27 02:01:59;;;;;;;0.90;0.60;;;;;;;;;;4948690;28;20218;-72
2021/08/27 02:04:26;;;;;;;0.90;0.60;;;;;;;;;;4932567;28;20610;-72
2021/08/27 02:06:52;;;;;;;0.90;0.70;;;;;;;;;;4947167;29;20261;-72
2021/08/27 02:09:19;;;;;;;0.90;0.75;;;;;;;;;;4934700;28;20205;-72
2021/08/27 02:11:46;;;;;;;1.60;1.05;;;;;;;;;;4946029;28;20206;-72
2021/08/27 02:14:13;;;;;;;0.90;0.60;;;;;;;;;;4941955;28;20188;-72
2021/08/27 02:16:39;;;;;;;0.90;0.70;;;;;;;;;;4932631;28;20575;-72
2021/08/27 02:19:06;;;;;;;0.90;0.60;;;;;;;;;;4933088;28;20181;-72
2021/08/27 02:21:35;;;;;;;0.90;0.60;;;;;;;;;;4932046;28;20640;-72
2021/08/27 02:24:02;;;;;;;3.05;0.85;;;;;;;;;;4932939;29;20205;-72
2021/08/27 02:26:29;;;;;;;0.90;0.70;;;;;;;;;;4932682;28;20256;-72
2021/08/27 02:28:56;;;;;;;0.90;0.60;;;;;;;;;;4932575;28;20367;-72
2021/08/27 02:31:24;;;;;;;2.30;0.82;;;;;;;;;;4932560;28;20207;-72
2021/08/27 02:33:50;;;;;;;0.90;0.60;;;;;;;;;;4932785;29;20205;-72
2021/08/27 02:36:18;;;;;;;0.90;0.68;;;;;;;;;;4931775;28;20212;-72
2021/08/27 02:38:45;;;;;;;1.00;0.70;;;;;;;;;;4932658;28;20192;-72
2021/08/27 02:41:11;;;;;;;1.05;0.95;;;;;;;;;;4940200;28;20701;-72
2021/08/27 02:43:37;;;;;;;0.90;0.60;;;;;;;;;;4932799;28;20190;-72
2021/08/27 02:46:03;;;;;;;0.90;0.80;;;;;;;;;;4932064;28;20850;-72
2021/08/27 02:48:30;;;;;;;0.90;0.68;;;;;;;;;;4932443;28;20249;-72
2021/08/27 02:51:02;;;;;;;0.90;0.70;;;;;;;;;;4932046;29;20201;-72
2021/08/27 02:53:29;;;;;;;0.90;0.60;;;;;;;;;;4932477;28;20226;-73
2021/08/27 02:55:59;;;;;;;0.90;0.60;;;;;;;;;;4932068;28;20193;-72
2021/08/27 02:58:27;;;;;;;1.20;0.80;;;;;;;;;;4931555;28;20189;-72
2021/08/27 03:00:56;;;;;;;1.17;1.08;;;;;;;;;;4932058;28;20216;-72
2021/08/27 03:03:23;;;;;;;0.90;0.70;;;;;;;;;;4931883;29;20718;-72
2021/08/27 03:05:52;;;;;;;0.90;0.60;;;;;;;;;;4932319;28;20224;-72
2021/08/27 03:08:21;;;;;;;0.90;0.60;;;;;;;;;;4930218;28;20227;-72
2021/08/27 03:10:51;;;;;;;0.90;0.68;;;;;;;;;;4939694;28;20217;-72
2021/08/27 03:13:29;;;;;;;1.00;0.75;;;;;;;;;;4935264;29;20217;-72
2021/08/27 03:16:01;;;;;;;0.90;0.60;;;;;;;;;;4948042;28;20579;-72
2021/08/27 03:18:31;;;;;;;1.00;0.90;;;;;;;;;;4939862;28;20573;-72
2021/08/27 03:20:57;;;;;;;0.90;0.60;;;;;;;;;;4922351;29;20206;-72
2021/08/27 03:23:23;;;;;;;0.90;0.80;;;;;;;;;;4931820;28;20304;-72
2021/08/27 03:25:50;;;;;;;2.03;0.90;;;;;;;;;;4939707;28;20471;-72
2021/08/27 03:28:20;;;;;;;0.90;0.60;;;;;;;;;;4931043;28;20201;-72
2021/08/27 03:30:50;;;;;;;0.90;0.60;;;;;;;;;;4931657;28;20273;-72
2021/08/27 03:33:16;;;;;;;0.90;0.60;;;;;;;;;;4931829;28;20264;-72
2021/08/27 03:35:42;;;;;;;0.90;0.68;;;;;;;;;;4931912;28;20174;-72
2021/08/27 03:38:10;;;;;;;0.90;0.70;;;;;;;;;;4931566;28;20194;-72
2021/08/27 03:40:36;;;;;;;0.90;0.70;;;;;;;;;;4931576;28;20209;-73
2021/08/27 03:43:03;;;;;;;1.00;0.80;;;;;;;;;;4931361;29;20189;-72
2021/08/27 03:45:30;;;;;;;0.90;0.60;;;;;;;;;;4931787;28;20185;-72
2021/08/27 03:47:56;;;;;;;0.90;0.60;;;;;;;;;;4930681;28;20599;-72
2021/08/27 03:50:22;;;;;;;0.90;0.60;;;;;;;;;;4931477;28;20237;-72
2021/08/27 03:52:50;;;;;;;0.90;0.60;;;;;;;;;;4933950;28;20189;-72
2021/08/27 03:55:17;;;;;;;0.90;0.60;;;;;;;;;;4939338;28;20644;-72
2021/08/27 03:57:45;;;;;;;1.00;0.80;;;;;;;;;;4930068;28;20178;-72
2021/08/27 04:00:12;;;;;;;0.90;0.60;;;;;;;;;;4930666;28;20204;-72
2021/08/27 04:02:38;;;;;;;0.90;0.60;;;;;;;;;;4950848;28;20181;-72
2021/08/27 04:05:12;;;;;;;1.00;0.80;;;;;;;;;;4932695;28;20225;-72
2021/08/27 04:07:38;;;;;;;0.90;0.70;;;;;;;;;;4928453;29;20555;-72
2021/08/27 04:10:05;;;;;;;0.90;0.70;;;;;;;;;;4930954;28;20665;-72
2021/08/27 04:12:31;;;;;;;0.90;0.68;;;;;;;;;;4931360;28;20169;-72
2021/08/27 04:14:57;;;;;;;0.90;0.60;;;;;;;;;;4931523;28;20261;-72
2021/08/27 04:17:23;;;;;;;0.90;0.63;;;;;;;;;;4937563;28;20281;-72
2021/08/27 04:19:49;;;;;;;0.90;0.60;;;;;;;;;;4941581;28;20230;-72
2021/08/27 04:22:15;;;;;;;0.90;0.60;;;;;;;;;;4931251;28;20441;-72
2021/08/27 04:24:41;;;;;;;0.90;0.70;;;;;;;;;;4930858;28;20449;-72
2021/08/27 04:27:07;;;;;;;0.90;0.70;;;;;;;;;;4927022;28;20532;-72
2021/08/27 04:29:33;;;;;;;0.90;0.60;;;;;;;;;;4931491;28;20839;-71
2021/08/27 04:31:59;;;;;;;0.90;0.60;;;;;;;;;;4931513;28;20465;-71
2021/08/27 04:34:25;;;;;;;0.90;0.60;;;;;;;;;;4933241;28;20231;-72
2021/08/27 04:36:51;;;;;;;1.02;0.80;;;;;;;;;;4934028;28;20185;-72
2021/08/27 04:39:17;;;;;;;1.00;0.90;;;;;;;;;;4934636;28;20177;-72
2021/08/27 04:41:43;;;;;;;0.90;0.60;;;;;;;;;;4934483;28;20600;-71
2021/08/27 04:44:09;;;;;;;1.00;0.90;;;;;;;;;;4934691;28;20456;-72
2021/08/27 04:46:35;;;;;;;0.90;0.60;;;;;;;;;;4934031;28;20441;-72
2021/08/27 04:49:01;;;;;;;0.90;0.60;;;;;;;;;;4947219;28;20453;-72
2021/08/27 04:51:27;;;;;;;0.90;0.70;;;;;;;;;;4933563;28;20975;-72
2021/08/27 04:53:53;;;;;;;0.90;0.70;;;;;;;;;;4933588;28;20550;-70
2021/08/27 04:56:19;;;;;;;0.90;0.70;;;;;;;;;;4940251;28;20615;-71
2021/08/27 04:58:45;;;;;;;0.90;0.60;;;;;;;;;;4935470;28;20516;-70
2021/08/27 05:01:11;;;;;;;0.90;0.60;;;;;;;;;;4931305;28;20213;-72
2021/08/27 05:03:37;;;;;;;1.20;0.80;;;;;;;;;;4934028;28;20182;-71
2021/08/27 05:06:03;;;;;;;0.90;0.60;;;;;;;;;;4931846;28;20801;-71
2021/08/27 05:08:29;;;;;;;2.97;0.80;;;;;;;;;;4934233;28;20461;-71
2021/08/27 05:10:55;;;;;;;1.47;1.03;;;;;;;;;;4933632;28;20207;-72
2021/08/27 05:13:21;;;;;;;0.90;0.60;;;;;;;;;;4934124;28;20446;-71
2021/08/27 05:15:47;;;;;;;0.90;0.60;;;;;;;;;;4932589;28;20189;-72
2021/08/27 05:18:14;;;;;;;1.00;0.80;;;;;;;;;;4940746;28;20641;-71
2021/08/27 05:20:40;;;;;;;0.90;0.60;;;;;;;;;;4940010;28;20233;-72
2021/08/27 05:23:06;;;;;;;0.90;0.80;;;;;;;;;;4934125;28;20561;-71
2021/08/27 05:25:32;;;;;;;0.90;0.60;;;;;;;;;;4933079;28;20193;-70
2021/08/27 05:27:58;;;;;;;1.27;1.17;;;;;;;;;;4933131;28;20454;-71
2021/08/27 05:30:24;;;;;;;0.90;0.60;;;;;;;;;;4933783;28;20598;-71
2021/08/27 05:32:50;;;;;;;1.00;0.70;;;;;;;;;;4933347;28;20185;-71
2021/08/27 05:35:17;;;;;;;1.23;0.90;;;;;;;;;;4937841;28;20410;-72
2021/08/27 05:37:43;;;;;;;0.90;0.70;;;;;;;;;;4944966;29;20185;-72
2021/08/27 05:40:10;;;;;;;0.90;0.60;;;;;;;;;;4946692;28;20189;-72
2021/08/27 05:42:37;;;;;;;0.90;0.68;;;;;;;;;;4934438;29;20493;-71
2021/08/27 05:45:04;;;;;;;0.90;0.70;;;;;;;;;;4932818;28;20202;-72
2021/08/27 05:47:30;;;;;;;0.90;0.60;;;;;;;;;;4940514;28;20469;-71
2021/08/27 05:49:57;;;;;;;1.35;1.25;;;;;;;;;;4925840;28;20565;-71
2021/08/27 05:52:22;;;;;;;1.15;1.05;;;;;;;;;;4931405;28;20241;-71
2021/08/27 05:54:48;;;;;;;0.90;0.70;;;;;;;;;;4933599;28;20649;-71
2021/08/27 05:57:14;;;;;;;0.90;0.60;;;;;;;;;;4933124;28;20418;-71
2021/08/27 05:59:40;;;;;;;1.40;1.30;;;;;;;;;;4933001;28;20806;-71
2021/08/27 06:02:06;;;;;;;0.90;0.60;;;;;;;;;;4936469;28;20457;-71
2021/08/27 06:04:32;;;;;;;0.90;0.60;;;;;;;;;;4933380;28;20973;-70
2021/08/27 06:06:58;;;;;;;2.13;1.80;;;;;;;;;;4931984;28;20308;-70
2021/08/27 06:09:24;;;;;;;0.90;0.60;;;;;;;;;;4932720;28;20523;-70
2021/08/27 06:11:50;;;;;;;0.90;0.60;;;;;;;;;;4932138;28;20957;-70
2021/08/27 06:14:16;;;;;;;0.90;0.60;;;;;;;;;;4932835;28;20235;-71
2021/08/27 06:16:42;;;;;;;0.90;0.60;;;;;;;;;;4933916;28;20429;-72
2021/08/27 06:19:08;;;;;;;1.05;0.93;;;;;;;;;;4944337;28;20424;-72
2021/08/27 06:21:35;;;;;;;0.90;0.70;;;;;;;;;;4952243;28;20558;-71
2021/08/27 06:24:01;;;;;;;0.90;0.70;;;;;;;;;;4951103;29;20417;-72
2021/08/27 06:26:28;;;;;;;0.90;0.60;;;;;;;;;;4937340;28;20261;-71
2021/08/27 06:28:54;;;;;;;1.08;0.90;;;;;;;;;;4932865;28;20666;-72
2021/08/27 06:31:20;;;;;;;1.23;0.70;;;;;;;;;;4932530;28;20225;-71
2021/08/27 06:33:46;;;;;;;1.00;0.85;;;;;;;;;;4932851;28;20212;-71
2021/08/27 06:36:12;;;;;;;0.90;0.68;;;;;;;;;;4932207;28;20178;-71
2021/08/27 06:38:38;;;;;;;1.08;0.80;;;;;;;;;;4932012;28;20673;-72
2021/08/27 06:41:05;;;;;;;0.90;0.70;;;;;;;;;;4932866;28;20218;-71
2021/08/27 06:43:33;;;;;;;0.90;0.73;;;;;;;;;;4932563;28;20182;-72
2021/08/27 06:46:01;;;;;;;0.90;0.60;;;;;;;;;;4932231;28;20660;-70
2021/08/27 06:48:27;;;;;;;0.90;0.60;;;;;;;;;;4940110;28;20177;-71
2021/08/27 06:50:53;;;;;;;1.20;1.10;;;;;;;;;;4942175;29;20575;-71
2021/08/27 06:53:20;;;;;;;0.90;0.70;;;;;;;;;;4932353;28;20197;-71
2021/08/27 06:55:46;;;;;;;0.90;0.60;;;;;;;;;;4933711;28;20252;-71
2021/08/27 06:58:12;;;;;;;2.10;0.90;;;;;;;;;;4942380;28;20181;-71
2021/08/27 07:00:38;;;;;;;0.90;0.70;;;;;;;;;;4950847;28;20208;-70
2021/08/27 07:03:04;;;;;;;1.00;0.80;;;;;;;;;;4913301;28;20264;-71
2021/08/27 07:05:30;;;;;;;10.80;1.55;;;;;;;;;;4913335;28;20183;-71
2021/08/27 07:07:57;;;;;;;0.90;0.60;;;;;;;;;;4927589;28;20185;-70
2021/08/27 07:10:23;;;;;;;0.90;0.60;;;;;;;;;;4932183;28;20304;-71
2021/08/27 07:12:50;;;;;;;1.45;0.80;;;;;;;;;;4931734;28;20210;-71
2021/08/27 07:15:16;;;;;;;1.00;0.77;;;;;;;;;;4932237;28;20186;-71
2021/08/27 07:17:42;;;;;;;0.90;0.80;;;;;;;;;;4929607;28;20182;-71
2021/08/27 07:20:09;;;;;;;0.90;0.70;;;;;;;;;;4931316;29;20645;-71
2021/08/27 07:22:38;;;;;;;0.90;0.60;;;;;;;;;;4926902;29;20190;-72
2021/08/27 07:25:05;;;;;;;0.90;0.60;;;;;;;;;;4931535;29;20210;-71
2021/08/27 07:27:31;;;;;;;0.90;0.68;;;;;;;;;;4931666;28;20174;-70
2021/08/27 07:29:57;;;;;;;0.90;0.70;;;;;;;;;;4931932;28;20206;-70
2021/08/27 07:32:23;;;;;;;1.40;1.30;;;;;;;;;;4931657;29;20269;-70
2021/08/27 07:34:50;;;;;;;0.90;0.60;;;;;;;;;;4931835;28;20174;-71
2021/08/27 07:37:16;;;;;;;1.23;1.13;;;;;;;;;;4931009;28;20559;-71
2021/08/27 07:39:42;;;;;;;0.90;0.70;;;;;;;;;;4931804;28;20177;-71
2021/08/27 07:42:08;;;;;;;0.90;0.60;;;;;;;;;;4957254;28;20465;-71
2021/08/27 07:44:35;;;;;;;0.90;0.70;;;;;;;;;;4990375;28;20261;-71
2021/08/27 07:47:01;;;;;;;0.90;0.60;;;;;;;;;;4975583;28;20188;-71
2021/08/27 07:49:27;;;;;;;0.90;0.60;;;;;;;;;;4937964;28;20677;-71
2021/08/27 07:51:53;;;;;;;0.90;0.60;;;;;;;;;;4931387;28;20238;-71
2021/08/27 07:54:20;;;;;;;0.90;0.70;;;;;;;;;;4931843;28;20407;-72
2021/08/27 07:56:46;;;;;;;1.20;1.10;;;;;;;;;;4931230;28;20205;-72
2021/08/27 07:59:12;;;;;;;0.90;0.57;;;;;;;;;;4931739;28;20186;-70
2021/08/27 08:01:38;;;;;;;1.88;0.93;;;;;;;;;;4929700;28;20353;-70
2021/08/27 08:04:05;;;;;;;0.90;0.70;;;;;;;;;;4921588;28;20206;-71
2021/08/27 08:06:32;;;;;;;9.93;1.77;;;;;;;;;;4930516;28;20186;-72
2021/08/27 08:09:00;;;;;;;0.90;0.60;;;;;;;;;;4932198;29;20247;-71
2021/08/27 08:11:26;;;;;;;1.15;0.77;;;;;;;;;;4935331;28;20638;-71
2021/08/27 08:13:52;;;;;;;0.90;0.60;;;;;;;;;;4934591;28;20217;-72
2021/08/27 08:16:18;;;;;;;1.55;1.13;;;;;;;;;;4933575;28;20245;-71
2021/08/27 08:18:44;;;;;;;0.90;0.60;;;;;;;;;;4944393;28;20637;-71
2021/08/27 08:21:12;;;;;;;0.90;0.73;;;;;;;;;;4937180;28;20457;-71
2021/08/27 08:23:38;;;;;;;1.13;0.70;;;;;;;;;;4935163;28;20439;-71
2021/08/27 08:26:04;;;;;;;0.90;0.65;;;;;;;;;;4945581;28;20182;-72
2021/08/27 08:28:30;;;;;;;0.90;0.60;;;;;;;;;;4952126;28;20242;-71
2021/08/27 08:30:56;;;;;;;0.90;0.60;;;;;;;;;;4934238;28;20245;-72
2021/08/27 08:33:22;;;;;;;0.90;0.70;;;;;;;;;;4933625;29;20213;-72
2021/08/27 08:35:49;;;;;;;0.90;0.70;;;;;;;;;;4934346;28;20172;-71
2021/08/27 08:38:15;;;;;;;0.90;0.60;;;;;;;;;;4933672;29;20273;-71
2021/08/27 08:40:41;;;;;;;3.38;1.50;;;;;;;;;;4933923;28;20246;-71
2021/08/27 08:43:08;;;;;;;0.90;0.70;;;;;;;;;;4934199;29;20193;-71
2021/08/27 08:45:35;;;;;;;1.00;0.85;;;;;;;;;;4933120;28;20237;-72
2021/08/27 08:48:02;;;;;;;2.60;0.77;;;;;;;;;;4933926;28;20180;-71
2021/08/27 08:50:28;;;;;;;0.90;0.60;;;;;;;;;;4935415;28;20723;-71
2021/08/27 08:52:54;;;;;;;0.90;0.70;;;;;;;;;;4935990;29;20195;-70
2021/08/27 08:55:21;;;;;;;0.90;0.60;;;;;;;;;;4932439;28;20231;-70
2021/08/27 08:57:47;;;;;;;0.90;0.60;;;;;;;;;;4942132;28;20537;-69
2021/08/27 09:00:13;;;;;;;1.77;0.80;;;;;;;;;;4953815;28;20486;-70
2021/08/27 09:02:39;;;;;;;0.90;0.70;;;;;;;;;;4947561;28;20475;-71
2021/08/27 09:05:05;;;;;;;0.90;0.60;;;;;;;;;;4927243;28;20435;-71
2021/08/27 09:07:31;;;;;;;0.90;0.60;;;;;;;;;;4934777;28;20534;-71
2021/08/27 09:09:58;;;;;;;0.90;0.80;;;;;;;;;;4933748;28;20504;-72
2021/08/27 09:12:28;;;;;;;1.30;1.10;;;;;;;;;;4933716;28;20479;-72
2021/08/27 09:14:58;;;;;;;0.90;0.60;;;;;;;;;;4934151;29;20482;-73
2021/08/27 09:17:33;;;;;;;0.97;0.80;;;;;;;;;;4937434;28;20639;-71
2021/08/27 09:20:01;;;;;;;0.80;0.60;;;;;;;;;;4933626;28;20474;-71
2021/08/27 09:22:42;;;;;;;1.20;1.10;;;;;;;;;;4933748;29;20420;-71
2021/08/27 09:25:09;;;;;;;0.87;0.70;;;;;;;;;;4914971;29;20443;-71
2021/08/27 09:27:37;;;;;;;0.90;0.80;;;;;;;;;;4931693;29;20525;-72
2021/08/27 09:30:12;;;;;;;0.80;0.60;;;;;;;;;;4933445;28;20609;-70
2021/08/27 09:32:38;;;;;;;0.80;0.50;;;;;;;;;;4933175;29;20782;-71
2021/08/27 09:35:06;;;;;;;0.90;0.60;;;;;;;;;;4933783;29;20496;-72
2021/08/27 09:37:51;;;;;;;1.17;0.97;;;;;;;;;;4933487;29;20407;-71
2021/08/27 09:40:17;;;;;;;1.40;1.03;;;;;;;;;;4933140;28;20428;-71
2021/08/27 09:42:47;;;;;;;0.80;0.60;;;;;;;;;;4933440;29;20414;-71
2021/08/27 09:45:13;;;;;;;0.80;0.60;;;;;;;;;;4933651;28;20464;-72
2021/08/27 09:47:39;;;;;;;2.90;1.73;;;;;;;;;;4940662;28;20420;-72
2021/08/27 09:50:19;;;;;;;0.80;0.60;;;;;;;;;;4945942;28;20471;-71
2021/08/27 09:52:52;;;;;;;0.80;0.60;;;;;;;;;;4943496;28;20452;-72
2021/08/27 09:55:18;;;;;;;2.40;0.90;;;;;;;;;;4932636;28;20412;-71
2021/08/27 09:57:45;;;;;;;1.30;0.97;;;;;;;;;;4965837;28;20423;-71
2021/08/27 10:00:20;;;;;;;0.80;0.60;;;;;;;;;;5033438;28;20420;-72
2021/08/27 10:02:47;;;;;;;0.80;0.60;;;;;;;;;;4981622;28;20432;-71
2021/08/27 10:05:14;;;;;;;1.03;0.80;;;;;;;;;;4933028;28;20424;-71
2021/08/27 10:07:41;;;;;;;0.80;0.50;;;;;;;;;;4940934;28;20862;-71
2021/08/27 10:10:15;;;;;;;0.90;0.60;;;;;;;;;;4948277;28;20961;-72
2021/08/27 10:12:44;;;;;;;0.80;0.60;;;;;;;;;;4932757;29;20439;-72
2021/08/27 10:15:11;;;;;;;0.80;0.60;;;;;;;;;;4931247;28;20416;-70
2021/08/27 10:17:37;;;;;;;0.80;0.60;;;;;;;;;;4939897;28;20860;-70
2021/08/27 10:20:04;;;;;;;0.80;0.60;;;;;;;;;;4933482;28;20827;-70
2021/08/27 10:22:30;;;;;;;0.80;0.60;;;;;;;;;;4932347;28;20782;-70
2021/08/27 10:24:56;;;;;;;1.30;1.20;;;;;;;;;;4933018;28;20448;-70
2021/08/27 10:27:22;;;;;;;0.90;0.60;;;;;;;;;;4932495;28;20468;-70
2021/08/27 10:29:53;;;;;;;0.80;0.60;;;;;;;;;;4932709;29;20470;-69
2021/08/27 10:32:37;;;;;;;0.80;0.60;;;;;;;;;;4932285;28;20464;-69
2021/08/27 10:35:03;;;;;;;0.90;0.80;;;;;;;;;;4932414;28;20431;-70
2021/08/27 10:37:48;;;;;;;0.83;0.70;;;;;;;;;;4931033;28;20440;-70
2021/08/27 10:40:37;;;;;;;1.10;0.73;;;;;;;;;;4932425;28;20412;-69
2021/08/27 10:43:04;;;;;;;1.90;1.80;;;;;;;;;;4939890;28;20444;-70
2021/08/27 10:45:35;;;;;;;0.80;0.60;;;;;;;;;;4932333;28;20436;-70
2021/08/27 10:48:10;;;;;;;0.80;0.60;;;;;;;;;;4932695;28;20941;-70
2021/08/27 10:50:37;;;;;;;2.73;1.00;;;;;;;;;;4946464;28;20855;-71
2021/08/27 10:53:21;;;;;;;0.80;0.60;;;;;;;;;;4969175;28;20809;-70
2021/08/27 10:55:47;;;;;;;0.90;0.73;;;;;;;;;;4952769;28;20451;-69
2021/08/27 10:58:14;;;;;;;0.90;0.70;;;;;;;;;;4940431;28;20917;-71
2021/08/27 11:00:41;;;;;;;1.00;0.90;;;;;;;;;;4932228;28;20441;-70
2021/08/27 11:03:08;;;;;;;0.80;0.60;;;;;;;;;;4930686;28;20790;-71
2021/08/27 11:05:41;;;;;;;0.80;0.60;;;;;;;;;;4932298;28;20399;-70
2021/08/27 11:08:09;;;;;;;0.80;0.60;;;;;;;;;;4931880;29;20460;-69
2021/08/27 11:10:38;;;;;;;1.00;0.60;;;;;;;;;;4912726;28;20451;-69
2021/08/27 11:13:10;;;;;;;0.80;0.60;;;;;;;;;;4931935;28;20788;-70
2021/08/27 11:15:36;;;;;;;0.80;0.50;;;;;;;;;;4946292;28;20437;-71
2021/08/27 11:18:17;;;;;;;0.80;0.50;;;;;;;;;;4972418;28;20909;-70
2021/08/27 11:20:44;;;;;;;0.80;0.60;;;;;;;;;;5022102;28;20403;-70
2021/08/27 11:23:10;;;;;;;0.80;0.60;;;;;;;;;;5031822;28;20491;-71
2021/08/27 11:25:40;;;;;;;0.90;0.60;;;;;;;;;;4994675;28;20388;-71
2021/08/27 11:28:08;;;;;;;0.80;0.60;;;;;;;;;;4942247;28;20425;-69
2021/08/27 11:30:34;;;;;;;0.80;0.50;;;;;;;;;;4951028;28;20538;-69
2021/08/27 11:33:01;;;;;;;2.43;0.77;;;;;;;;;;4947633;28;20400;-69
2021/08/27 11:35:28;;;;;;;0.80;0.70;;;;;;;;;;4929953;28;20408;-69
2021/08/27 11:37:58;;;;;;;0.90;0.60;;;;;;;;;;4948983;28;20403;-70
2021/08/27 11:40:24;;;;;;;0.80;0.50;;;;;;;;;;4953686;28;20579;-70
2021/08/27 11:42:55;;;;;;;1.73;0.60;;;;;;;;;;4931230;29;20388;-71
2021/08/27 11:45:22;;;;;;;0.80;0.60;;;;;;;;;;4931855;29;20394;-70
2021/08/27 11:47:48;;;;;;;0.90;0.60;;;;;;;;;;4943208;28;20436;-69
2021/08/27 11:50:17;;;;;;;0.80;0.50;;;;;;;;;;4963756;28;20792;-70
2021/08/27 11:52:43;;;;;;;0.80;0.60;;;;;;;;;;4931469;28;20406;-70
2021/08/27 11:55:15;;;;;;;0.80;0.60;;;;;;;;;;4931755;28;20395;-70
2021/08/27 11:57:49;;;;;;;0.80;0.60;;;;;;;;;;4940346;29;20426;-69
2021/08/27 12:00:15;;;;;;;0.80;0.60;;;;;;;;;;4950708;28;20394;-70
2021/08/27 12:02:41;;;;;;;0.80;0.60;;;;;;;;;;4950723;28;20431;-70
2021/08/27 12:05:10;;;;;;;0.80;0.60;;;;;;;;;;4939490;28;20448;-70
2021/08/27 12:07:40;;;;;;;2.20;1.67;;;;;;;;;;4934697;28;20996;-71
2021/08/27 12:10:08;;;;;;;0.80;0.60;;;;;;;;;;4964594;28;20519;-70
2021/08/27 12:12:36;;;;;;;0.90;0.70;;;;;;;;;;4931060;29;20815;-70
2021/08/27 12:15:03;;;;;;;1.17;1.07;;;;;;;;;;4931395;29;20404;-70
2021/08/27 12:17:29;;;;;;;0.80;0.50;;;;;;;;;;4921080;28;20433;-70
2021/08/27 12:19:57;;;;;;;0.80;0.50;;;;;;;;;;4931795;28;20845;-70
2021/08/27 12:22:24;;;;;;;6.43;1.00;;;;;;;;;;4931835;28;20487;-70
2021/08/27 12:24:52;;;;;;;7.03;0.83;;;;;;;;;;4931030;28;20429;-69
2021/08/27 12:27:18;;;;;;;0.93;0.80;;;;;;;;;;4938636;28;20950;-70
2021/08/27 12:29:44;;;;;;;0.80;0.60;;;;;;;;;;4931891;29;20444;-70
2021/08/27 12:32:14;;;;;;;0.80;0.60;;;;;;;;;;4929985;29;20437;-70
2021/08/27 12:34:43;;;;;;;0.80;0.60;;;;;;;;;;4929655;28;20402;-69
2021/08/27 12:37:09;;;;;;;0.80;0.60;;;;;;;;;;4925894;28;20408;-69
2021/08/27 12:39:36;;;;;;;1.00;0.73;;;;;;;;;;4930572;28;20785;-70
2021/08/27 12:42:15;;;;;;;0.80;0.80;;;;;;;;;;4921755;28;20803;-71
2021/08/27 12:45:07;;;;;;;0.80;0.60;;;;;;;;;;4931143;28;20474;-71
2021/08/27 12:47:36;;;;;;;2.03;0.73;;;;;;;;;;4917918;28;20441;-70
2021/08/27 12:50:05;;;;;;;0.80;0.60;;;;;;;;;;4931064;29;20464;-71
2021/08/27 12:52:31;;;;;;;0.80;0.70;;;;;;;;;;4930433;28;20408;-70
2021/08/27 12:54:57;;;;;;;0.90;0.60;;;;;;;;;;4930837;28;20473;-69
2021/08/27 12:57:23;;;;;;;1.00;0.87;;;;;;;;;;4941204;28;20408;-69
2021/08/27 13:00:02;;;;;;;0.80;0.60;;;;;;;;;;4942534;28;20422;-70
2021/08/27 13:02:28;;;;;;;0.90;0.70;;;;;;;;;;4934320;29;20390;-70
2021/08/27 13:04:54;;;;;;;0.80;0.60;;;;;;;;;;4934037;28;20728;-71
2021/08/27 13:07:24;;;;;;;0.80;0.60;;;;;;;;;;4932586;28;20952;-71
2021/08/27 13:09:50;;;;;;;0.80;0.60;;;;;;;;;;4933806;28;20469;-71
2021/08/27 13:12:28;;;;;;;0.80;0.60;;;;;;;;;;4964424;28;20498;-70
2021/08/27 13:14:57;;;;;;;0.80;0.70;;;;;;;;;;4973961;28;20424;-70
2021/08/27 13:17:23;;;;;;;0.80;0.70;;;;;;;;;;4933560;29;20422;-70
2021/08/27 13:19:57;;;;;;;0.80;0.60;;;;;;;;;;4933589;28;20486;-70
2021/08/27 13:22:24;;;;;;;0.80;0.50;;;;;;;;;;4931490;29;20780;-70
2021/08/27 13:24:56;;;;;;;0.90;0.60;;;;;;;;;;4933115;28;20903;-70
2021/08/27 13:27:22;;;;;;;1.40;0.67;;;;;;;;;;4934791;28;20411;-70
2021/08/27 13:29:48;;;;;;;0.80;0.60;;;;;;;;;;4934836;29;20460;-70
2021/08/27 13:32:22;;;;;;;0.90;0.83;;;;;;;;;;4946970;28;21017;-70
2021/08/27 13:34:48;;;;;;;0.80;0.60;;;;;;;;;;4959336;28;20936;-70
2021/08/27 13:37:14;;;;;;;1.60;1.03;;;;;;;;;;4930877;29;20438;-69
2021/08/27 13:39:40;;;;;;;0.80;0.60;;;;;;;;;;4937534;28;20409;-69
2021/08/27 13:42:06;;;;;;;1.00;0.90;;;;;;;;;;4968178;28;21086;-69
2021/08/27 13:44:32;;;;;;;0.80;0.60;;;;;;;;;;4933294;28;20940;-71
2021/08/27 13:46:58;;;;;;;1.20;1.10;;;;;;;;;;4932447;29;20473;-69
2021/08/27 13:49:24;;;;;;;1.20;0.70;;;;;;;;;;4932023;29;20447;-71
2021/08/27 13:51:50;;;;;;;0.80;0.50;;;;;;;;;;4932287;29;20449;-72
2021/08/27 13:54:16;;;;;;;0.80;0.60;;;;;;;;;;4932388;28;20423;-71
2021/08/27 13:56:42;;;;;;;0.80;0.60;;;;;;;;;;4942013;28;20436;-71
2021/08/27 13:59:08;;;;;;;0.80;0.60;;;;;;;;;;4940570;28;20531;-71
2021/08/27 14:01:34;;;;;;;0.90;0.70;;;;;;;;;;4932451;29;20427;-71
2021/08/27 14:03:59;;;;;;;1.30;1.17;;;;;;;;;;4933223;28;20419;-71
2021/08/27 14:06:26;;;;;;;0.80;0.70;;;;;;;;;;4930486;28;20455;-71
2021/08/27 14:08:52;;;;;;;1.13;0.90;;;;;;;;;;4927163;28;20511;-71
2021/08/27 14:11:18;;;;;;;0.93;0.83;;;;;;;;;;4931890;28;20473;-71
2021/08/27 14:13:44;;;;;;;0.80;0.50;;;;;;;;;;4932535;28;22316;-71
2021/08/27 14:16:10;;;;;;;0.90;0.60;;;;;;;;;;4931797;29;20408;-71
2021/08/27 14:18:36;;;;;;;0.90;0.80;;;;;;;;;;4932304;28;20426;-71
2021/08/27 14:21:06;;;;;;;0.80;0.50;;;;;;;;;;4935716;28;20424;-70
2021/08/27 14:23:32;;;;;;;0.80;0.50;;;;;;;;;;4931656;29;20439;-69
2021/08/27 14:25:58;;;;;;;0.80;0.60;;;;;;;;;;4931766;28;20436;-70
2021/08/27 14:28:25;;;;;;;1.00;0.90;;;;;;;;;;4931697;28;20422;-71
2021/08/27 14:30:54;;;;;;;0.80;0.57;;;;;;;;;;4930781;28;20447;-70
2021/08/27 14:33:21;;;;;;;1.00;0.90;;;;;;;;;;4931248;28;20407;-69
2021/08/27 14:35:49;;;;;;;3.37;0.70;;;;;;;;;;4930003;28;20440;-70
2021/08/27 14:38:15;;;;;;;0.80;0.60;;;;;;;;;;4930909;28;20403;-70
2021/08/27 14:40:41;;;;;;;0.80;0.60;;;;;;;;;;4931616;28;20509;-70
2021/08/27 14:43:07;;;;;;;0.80;0.60;;;;;;;;;;4931862;28;20441;-70
2021/08/27 14:45:33;;;;;;;0.83;0.67;;;;;;;;;;4931667;28;20436;-70
2021/08/27 14:47:59;;;;;;;0.80;0.60;;;;;;;;;;4939895;28;20432;-70